sensor_id;sensor_type;location;lat;lon;timestamp;P1;durP1;ratioP1;P2;durP2;ratioP2
44270;SDS011;29963;44.594;11.368;2023-04-01T00:01:55;26.00;;;15.95;;
44270;SDS011;29963;44.594;11.368;2023-04-01T00:04:21;23.23;;;16.15;;
44270;SDS011;29963;44.594;11.368;2023-04-01T00:06:46;24.08;;;15.38;;
44270;SDS011;29963;44.594;11.368;2023-04-01T00:09:12;20.58;;;15.35;;
44270;SDS011;29963;44.594;11.368;2023-04-01T00:11:38;18.10;;;15.02;;
44270;SDS011;29963;44.594;11.368;2023-04-01T00:14:05;18.90;;;15.23;;
44270;SDS011;29963;44.594;11.368;2023-04-01T00:16:32;23.33;;;16.05;;
44270;SDS011;29963;44.594;11.368;2023-04-01T00:18:57;21.58;;;15.10;;
44270;SDS011;29963;44.594;11.368;2023-04-01T00:21:24;19.48;;;14.98;;
44270;SDS011;29963;44.594;11.368;2023-04-01T00:23:50;19.85;;;16.00;;
44270;SDS011;29963;44.594;11.368;2023-04-01T00:26:16;21.35;;;15.23;;
44270;SDS011;29963;44.594;11.368;2023-04-01T00:28:45;18.35;;;15.07;;
44270;SDS011;29963;44.594;11.368;2023-04-01T00:31:11;19.63;;;15.88;;
44270;SDS011;29963;44.594;11.368;2023-04-01T00:33:38;19.58;;;15.20;;
44270;SDS011;29963;44.594;11.368;2023-04-01T00:36:10;19.10;;;13.70;;
44270;SDS011;29963;44.594;11.368;2023-04-01T00:38:38;20.10;;;14.85;;
44270;SDS011;29963;44.594;11.368;2023-04-01T00:41:04;15.73;;;13.95;;
44270;SDS011;29963;44.594;11.368;2023-04-01T00:43:30;18.40;;;13.05;;
44270;SDS011;29963;44.594;11.368;2023-04-01T00:45:56;15.85;;;12.85;;
44270;SDS011;29963;44.594;11.368;2023-04-01T00:48:23;16.52;;;14.20;;
44270;SDS011;29963;44.594;11.368;2023-04-01T00:50:55;18.25;;;13.10;;
44270;SDS011;29963;44.594;11.368;2023-04-01T00:53:32;18.65;;;13.85;;
44270;SDS011;29963;44.594;11.368;2023-04-01T00:56:02;17.13;;;12.80;;
44270;SDS011;29963;44.594;11.368;2023-04-01T00:58:33;19.05;;;13.35;;
44270;SDS011;29963;44.594;11.368;2023-04-01T01:01:03;15.13;;;13.63;;
44270;SDS011;29963;44.594;11.368;2023-04-01T01:03:30;18.50;;;14.80;;
44270;SDS011;29963;44.594;11.368;2023-04-01T01:11:05;19.42;;;14.60;;
44270;SDS011;29963;44.594;11.368;2023-04-01T01:16:25;17.45;;;15.57;;
44270;SDS011;29963;44.594;11.368;2023-04-01T01:27:12;19.65;;;15.75;;
44270;SDS011;29963;44.594;11.368;2023-04-01T01:32:24;20.77;;;16.40;;
44270;SDS011;29963;44.594;11.368;2023-04-01T01:37:55;19.33;;;14.85;;
44270;SDS011;29963;44.594;11.368;2023-04-01T01:40:27;17.48;;;15.65;;
44270;SDS011;29963;44.594;11.368;2023-04-01T01:42:57;21.38;;;16.77;;
44270;SDS011;29963;44.594;11.368;2023-04-01T01:45:27;20.38;;;18.27;;
44270;SDS011;29963;44.594;11.368;2023-04-01T01:47:55;18.90;;;15.85;;
44270;SDS011;29963;44.594;11.368;2023-04-01T01:50:22;21.73;;;17.38;;
44270;SDS011;29963;44.594;11.368;2023-04-01T01:52:51;20.52;;;17.13;;
44270;SDS011;29963;44.594;11.368;2023-04-01T01:55:29;21.20;;;17.70;;
44270;SDS011;29963;44.594;11.368;2023-04-01T01:58:06;22.67;;;16.80;;
44270;SDS011;29963;44.594;11.368;2023-04-01T02:00:41;20.40;;;17.30;;
44270;SDS011;29963;44.594;11.368;2023-04-01T02:03:12;20.73;;;18.52;;
44270;SDS011;29963;44.594;11.368;2023-04-01T02:05:39;25.80;;;17.30;;
44270;SDS011;29963;44.594;11.368;2023-04-01T02:08:49;24.65;;;19.92;;
44270;SDS011;29963;44.594;11.368;2023-04-01T02:11:06;22.02;;;17.70;;
44270;SDS011;29963;44.594;11.368;2023-04-01T02:13:41;20.08;;;17.35;;
44270;SDS011;29963;44.594;11.368;2023-04-01T02:16:26;23.52;;;18.38;;
44270;SDS011;29963;44.594;11.368;2023-04-01T02:19:26;24.58;;;18.67;;
44270;SDS011;29963;44.594;11.368;2023-04-01T02:21:57;22.83;;;18.65;;
44270;SDS011;29963;44.594;11.368;2023-04-01T02:24:26;21.25;;;18.80;;
44270;SDS011;29963;44.594;11.368;2023-04-01T02:26:55;23.27;;;18.95;;
44270;SDS011;29963;44.594;11.368;2023-04-01T02:29:21;24.67;;;19.73;;
44270;SDS011;29963;44.594;11.368;2023-04-01T02:31:50;21.17;;;17.25;;
44270;SDS011;29963;44.594;11.368;2023-04-01T02:34:16;21.75;;;18.42;;
44270;SDS011;29963;44.594;11.368;2023-04-01T02:36:42;24.42;;;17.75;;
44270;SDS011;29963;44.594;11.368;2023-04-01T02:39:08;25.38;;;19.08;;
44270;SDS011;29963;44.594;11.368;2023-04-01T02:41:43;21.20;;;19.02;;
44270;SDS011;29963;44.594;11.368;2023-04-01T02:44:10;21.30;;;18.35;;
44270;SDS011;29963;44.594;11.368;2023-04-01T02:46:38;21.52;;;18.20;;
44270;SDS011;29963;44.594;11.368;2023-04-01T02:49:04;23.83;;;19.33;;
44270;SDS011;29963;44.594;11.368;2023-04-01T02:51:31;26.77;;;19.30;;
44270;SDS011;29963;44.594;11.368;2023-04-01T02:53:57;25.25;;;19.15;;
44270;SDS011;29963;44.594;11.368;2023-04-01T02:56:23;27.25;;;20.88;;
44270;SDS011;29963;44.594;11.368;2023-04-01T02:58:48;24.08;;;19.00;;
44270;SDS011;29963;44.594;11.368;2023-04-01T03:01:14;22.35;;;19.48;;
44270;SDS011;29963;44.594;11.368;2023-04-01T03:03:40;25.00;;;20.48;;
44270;SDS011;29963;44.594;11.368;2023-04-01T03:06:06;23.67;;;20.98;;
44270;SDS011;29963;44.594;11.368;2023-04-01T03:08:33;25.13;;;21.15;;
44270;SDS011;29963;44.594;11.368;2023-04-01T03:10:59;30.15;;;21.92;;
44270;SDS011;29963;44.594;11.368;2023-04-01T03:13:25;26.05;;;21.45;;
44270;SDS011;29963;44.594;11.368;2023-04-01T03:15:50;28.90;;;21.92;;
44270;SDS011;29963;44.594;11.368;2023-04-01T03:18:16;28.48;;;23.05;;
44270;SDS011;29963;44.594;11.368;2023-04-01T03:20:42;25.85;;;23.10;;
44270;SDS011;29963;44.594;11.368;2023-04-01T03:23:07;25.92;;;21.80;;
44270;SDS011;29963;44.594;11.368;2023-04-01T03:25:33;26.80;;;21.88;;
44270;SDS011;29963;44.594;11.368;2023-04-01T03:27:59;32.67;;;24.10;;
44270;SDS011;29963;44.594;11.368;2023-04-01T03:30:25;30.90;;;23.40;;
44270;SDS011;29963;44.594;11.368;2023-04-01T03:32:51;28.50;;;22.35;;
44270;SDS011;29963;44.594;11.368;2023-04-01T03:35:17;24.38;;;21.33;;
44270;SDS011;29963;44.594;11.368;2023-04-01T03:37:43;31.85;;;22.80;;
44270;SDS011;29963;44.594;11.368;2023-04-01T03:40:09;32.00;;;22.25;;
44270;SDS011;29963;44.594;11.368;2023-04-01T03:42:35;28.10;;;23.38;;
44270;SDS011;29963;44.594;11.368;2023-04-01T03:45:01;27.13;;;23.50;;
44270;SDS011;29963;44.594;11.368;2023-04-01T03:47:28;26.02;;;21.17;;
44270;SDS011;29963;44.594;11.368;2023-04-01T03:49:54;31.85;;;24.10;;
44270;SDS011;29963;44.594;11.368;2023-04-01T03:52:19;29.75;;;24.13;;
44270;SDS011;29963;44.594;11.368;2023-04-01T03:54:45;32.33;;;24.13;;
44270;SDS011;29963;44.594;11.368;2023-04-01T03:57:11;30.83;;;23.65;;
44270;SDS011;29963;44.594;11.368;2023-04-01T03:59:36;29.58;;;23.35;;
44270;SDS011;29963;44.594;11.368;2023-04-01T04:02:02;28.35;;;24.77;;
44270;SDS011;29963;44.594;11.368;2023-04-01T04:04:28;31.33;;;24.35;;
44270;SDS011;29963;44.594;11.368;2023-04-01T04:06:54;29.95;;;24.17;;
44270;SDS011;29963;44.594;11.368;2023-04-01T04:09:19;32.35;;;25.75;;
44270;SDS011;29963;44.594;11.368;2023-04-01T04:11:45;29.25;;;24.90;;
44270;SDS011;29963;44.594;11.368;2023-04-01T04:14:11;31.73;;;23.80;;
44270;SDS011;29963;44.594;11.368;2023-04-01T04:16:36;30.48;;;22.63;;
44270;SDS011;29963;44.594;11.368;2023-04-01T04:19:02;30.63;;;24.73;;
44270;SDS011;29963;44.594;11.368;2023-04-01T04:21:28;31.60;;;24.27;;
44270;SDS011;29963;44.594;11.368;2023-04-01T04:23:54;31.95;;;24.77;;
44270;SDS011;29963;44.594;11.368;2023-04-01T04:26:20;35.40;;;27.65;;
44270;SDS011;29963;44.594;11.368;2023-04-01T04:28:46;31.85;;;26.45;;
44270;SDS011;29963;44.594;11.368;2023-04-01T04:31:11;30.40;;;25.20;;
44270;SDS011;29963;44.594;11.368;2023-04-01T04:33:42;29.48;;;25.60;;
44270;SDS011;29963;44.594;11.368;2023-04-01T04:36:08;36.03;;;26.17;;
44270;SDS011;29963;44.594;11.368;2023-04-01T04:38:33;32.65;;;26.35;;
44270;SDS011;29963;44.594;11.368;2023-04-01T04:40:59;29.85;;;24.67;;
44270;SDS011;29963;44.594;11.368;2023-04-01T04:43:25;31.88;;;27.75;;
44270;SDS011;29963;44.594;11.368;2023-04-01T04:45:50;35.78;;;26.95;;
44270;SDS011;29963;44.594;11.368;2023-04-01T04:48:16;31.08;;;26.38;;
44270;SDS011;29963;44.594;11.368;2023-04-01T04:51:00;28.15;;;24.95;;
44270;SDS011;29963;44.594;11.368;2023-04-01T04:53:27;32.50;;;25.40;;
44270;SDS011;29963;44.594;11.368;2023-04-01T04:55:52;32.15;;;25.10;;
44270;SDS011;29963;44.594;11.368;2023-04-01T04:58:18;34.42;;;26.70;;
44270;SDS011;29963;44.594;11.368;2023-04-01T05:00:44;32.38;;;26.40;;
44270;SDS011;29963;44.594;11.368;2023-04-01T05:03:11;36.33;;;27.35;;
44270;SDS011;29963;44.594;11.368;2023-04-01T05:05:37;34.97;;;28.80;;
44270;SDS011;29963;44.594;11.368;2023-04-01T05:08:03;29.52;;;26.38;;
44270;SDS011;29963;44.594;11.368;2023-04-01T05:10:29;35.63;;;29.15;;
44270;SDS011;29963;44.594;11.368;2023-04-01T05:12:55;37.85;;;27.83;;
44270;SDS011;29963;44.594;11.368;2023-04-01T05:15:21;32.50;;;26.55;;
44270;SDS011;29963;44.594;11.368;2023-04-01T05:17:47;37.35;;;27.42;;
44270;SDS011;29963;44.594;11.368;2023-04-01T05:20:13;35.42;;;28.90;;
44270;SDS011;29963;44.594;11.368;2023-04-01T05:22:39;34.70;;;29.17;;
44270;SDS011;29963;44.594;11.368;2023-04-01T05:25:05;35.78;;;27.05;;
44270;SDS011;29963;44.594;11.368;2023-04-01T05:27:31;31.42;;;25.48;;
44270;SDS011;29963;44.594;11.368;2023-04-01T05:29:57;33.78;;;26.30;;
44270;SDS011;29963;44.594;11.368;2023-04-01T05:32:23;34.70;;;27.58;;
44270;SDS011;29963;44.594;11.368;2023-04-01T05:34:51;34.38;;;27.63;;
44270;SDS011;29963;44.594;11.368;2023-04-01T05:37:18;35.83;;;27.52;;
44270;SDS011;29963;44.594;11.368;2023-04-01T05:39:44;40.17;;;27.10;;
44270;SDS011;29963;44.594;11.368;2023-04-01T05:42:09;32.00;;;27.38;;
44270;SDS011;29963;44.594;11.368;2023-04-01T05:44:35;32.95;;;28.02;;
44270;SDS011;29963;44.594;11.368;2023-04-01T05:47:01;41.42;;;28.83;;
44270;SDS011;29963;44.594;11.368;2023-04-01T05:49:28;37.60;;;27.90;;
44270;SDS011;29963;44.594;11.368;2023-04-01T05:51:53;36.00;;;29.13;;
44270;SDS011;29963;44.594;11.368;2023-04-01T05:54:19;39.78;;;28.92;;
44270;SDS011;29963;44.594;11.368;2023-04-01T05:56:45;34.00;;;28.23;;
44270;SDS011;29963;44.594;11.368;2023-04-01T05:59:11;31.40;;;26.80;;
44270;SDS011;29963;44.594;11.368;2023-04-01T06:01:37;35.45;;;27.23;;
44270;SDS011;29963;44.594;11.368;2023-04-01T06:04:03;31.70;;;28.35;;
44270;SDS011;29963;44.594;11.368;2023-04-01T06:06:29;36.97;;;28.33;;
44270;SDS011;29963;44.594;11.368;2023-04-01T06:09:18;30.67;;;26.58;;
44270;SDS011;29963;44.594;11.368;2023-04-01T06:14:40;27.65;;;24.60;;
44270;SDS011;29963;44.594;11.368;2023-04-01T06:17:31;30.65;;;24.58;;
44270;SDS011;29963;44.594;11.368;2023-04-01T06:26:03;27.73;;;24.77;;
44270;SDS011;29963;44.594;11.368;2023-04-01T06:31:44;28.50;;;23.92;;
44270;SDS011;29963;44.594;11.368;2023-04-01T06:39:53;31.48;;;26.08;;
44270;SDS011;29963;44.594;11.368;2023-04-01T06:50:30;24.55;;;21.77;;
44270;SDS011;29963;44.594;11.368;2023-04-01T06:56:02;24.85;;;21.17;;
44270;SDS011;29963;44.594;11.368;2023-04-01T06:58:36;24.08;;;20.25;;
44270;SDS011;29963;44.594;11.368;2023-04-01T07:01:07;24.25;;;19.45;;
44270;SDS011;29963;44.594;11.368;2023-04-01T07:03:44;23.50;;;20.40;;
44270;SDS011;29963;44.594;11.368;2023-04-01T07:06:25;20.98;;;18.83;;
44270;SDS011;29963;44.594;11.368;2023-04-01T07:08:55;24.50;;;18.58;;
44270;SDS011;29963;44.594;11.368;2023-04-01T07:11:31;22.95;;;18.42;;
44270;SDS011;29963;44.594;11.368;2023-04-01T07:13:59;24.55;;;19.83;;
44270;SDS011;29963;44.594;11.368;2023-04-01T07:16:34;19.45;;;17.33;;
44270;SDS011;29963;44.594;11.368;2023-04-01T07:19:12;24.38;;;18.58;;
44270;SDS011;29963;44.594;11.368;2023-04-01T07:21:47;22.70;;;18.98;;
44270;SDS011;29963;44.594;11.368;2023-04-01T07:24:35;21.48;;;17.95;;
44270;SDS011;29963;44.594;11.368;2023-04-01T07:27:05;20.80;;;18.65;;
44270;SDS011;29963;44.594;11.368;2023-04-01T07:29:35;23.50;;;19.73;;
44270;SDS011;29963;44.594;11.368;2023-04-01T07:34:45;22.75;;;19.33;;
44270;SDS011;29963;44.594;11.368;2023-04-01T07:48:39;21.50;;;18.38;;
44270;SDS011;29963;44.594;11.368;2023-04-01T07:53:38;18.95;;;16.95;;
44270;SDS011;29963;44.594;11.368;2023-04-01T07:58:51;17.10;;;13.15;;
44270;SDS011;29963;44.594;11.368;2023-04-01T08:04:25;15.82;;;13.60;;
44270;SDS011;29963;44.594;11.368;2023-04-01T08:17:30;16.13;;;12.35;;
44270;SDS011;29963;44.594;11.368;2023-04-01T08:25:05;12.65;;;11.40;;
44270;SDS011;29963;44.594;11.368;2023-04-01T08:27:37;16.08;;;11.55;;
44270;SDS011;29963;44.594;11.368;2023-04-01T08:32:48;14.18;;;11.82;;
44270;SDS011;29963;44.594;11.368;2023-04-01T08:36:05;16.27;;;10.45;;
44270;SDS011;29963;44.594;11.368;2023-04-01T08:38:32;12.63;;;10.82;;
44270;SDS011;29963;44.594;11.368;2023-04-01T08:41:08;12.60;;;10.15;;
44270;SDS011;29963;44.594;11.368;2023-04-01T08:43:51;14.50;;;10.73;;
44270;SDS011;29963;44.594;11.368;2023-04-01T08:52:21;14.02;;;9.93;;
44270;SDS011;29963;44.594;11.368;2023-04-01T08:55:22;11.52;;;10.27;;
44270;SDS011;29963;44.594;11.368;2023-04-01T09:00:46;12.55;;;11.35;;
44270;SDS011;29963;44.594;11.368;2023-04-01T09:17:59;13.73;;;10.70;;
44270;SDS011;29963;44.594;11.368;2023-04-01T09:40:02;12.23;;;9.75;;
44270;SDS011;29963;44.594;11.368;2023-04-01T09:45:21;11.35;;;10.25;;
44270;SDS011;29963;44.594;11.368;2023-04-01T09:48:15;11.38;;;10.15;;
44270;SDS011;29963;44.594;11.368;2023-04-01T10:10:47;10.80;;;7.32;;
44270;SDS011;29963;44.594;11.368;2023-04-01T10:16:25;8.30;;;7.50;;
44270;SDS011;29963;44.594;11.368;2023-04-01T10:39:20;5.75;;;5.15;;
44270;SDS011;29963;44.594;11.368;2023-04-01T10:53:58;7.07;;;4.65;;
44270;SDS011;29963;44.594;11.368;2023-04-01T11:08:54;6.40;;;4.75;;
44270;SDS011;29963;44.594;11.368;2023-04-01T11:15:09;5.63;;;4.80;;
44270;SDS011;29963;44.594;11.368;2023-04-01T11:28:43;7.03;;;2.70;;
44270;SDS011;29963;44.594;11.368;2023-04-01T11:43:08;3.40;;;2.28;;
44270;SDS011;29963;44.594;11.368;2023-04-01T11:56:41;3.70;;;1.50;;
44270;SDS011;29963;44.594;11.368;2023-04-01T11:59:47;2.22;;;1.98;;
44270;SDS011;29963;44.594;11.368;2023-04-01T12:10:19;1.95;;;1.48;;
44270;SDS011;29963;44.594;11.368;2023-04-01T12:18:41;1.98;;;1.70;;
44270;SDS011;29963;44.594;11.368;2023-04-01T12:31:32;1.60;;;1.40;;
44270;SDS011;29963;44.594;11.368;2023-04-01T12:37:03;3.72;;;1.40;;
44270;SDS011;29963;44.594;11.368;2023-04-01T12:40:01;1.77;;;1.58;;
44270;SDS011;29963;44.594;11.368;2023-04-01T12:56:32;1.52;;;1.30;;
44270;SDS011;29963;44.594;11.368;2023-04-01T13:02:13;2.15;;;1.23;;
44270;SDS011;29963;44.594;11.368;2023-04-01T13:08:13;6.80;;;1.55;;
44270;SDS011;29963;44.594;11.368;2023-04-01T13:16:33;1.85;;;1.42;;
44270;SDS011;29963;44.594;11.368;2023-04-01T13:22:03;2.28;;;1.90;;
44270;SDS011;29963;44.594;11.368;2023-04-01T13:24:59;1.67;;;1.48;;
44270;SDS011;29963;44.594;11.368;2023-04-01T13:27:55;0.98;;;0.98;;
44270;SDS011;29963;44.594;11.368;2023-04-01T13:31:02;1.75;;;1.42;;
44270;SDS011;29963;44.594;11.368;2023-04-01T13:33:35;1.65;;;1.38;;
44270;SDS011;29963;44.594;11.368;2023-04-01T13:36:34;2.00;;;1.70;;
44270;SDS011;29963;44.594;11.368;2023-04-01T13:42:29;5.78;;;2.83;;
44270;SDS011;29963;44.594;11.368;2023-04-01T13:45:18;2.95;;;2.55;;
44270;SDS011;29963;44.594;11.368;2023-04-01T13:58:40;2.47;;;2.25;;
44270;SDS011;29963;44.594;11.368;2023-04-01T14:01:41;4.55;;;2.42;;
44270;SDS011;29963;44.594;11.368;2023-04-01T14:20:36;4.05;;;2.75;;
44270;SDS011;29963;44.594;11.368;2023-04-01T14:33:54;3.17;;;2.85;;
44270;SDS011;29963;44.594;11.368;2023-04-01T14:50:24;4.88;;;2.70;;
44270;SDS011;29963;44.594;11.368;2023-04-01T14:55:27;4.30;;;2.85;;
44270;SDS011;29963;44.594;11.368;2023-04-01T14:57:58;2.92;;;2.40;;
44270;SDS011;29963;44.594;11.368;2023-04-01T15:00:25;3.38;;;2.72;;
44270;SDS011;29963;44.594;11.368;2023-04-01T15:23:57;2.03;;;1.55;;
44270;SDS011;29963;44.594;11.368;2023-04-01T15:26:43;2.10;;;1.88;;
44270;SDS011;29963;44.594;11.368;2023-04-01T15:32:15;1.63;;;1.42;;
44270;SDS011;29963;44.594;11.368;2023-04-01T15:34:57;2.08;;;1.40;;
44270;SDS011;29963;44.594;11.368;2023-04-01T15:37:39;1.52;;;1.38;;
44270;SDS011;29963;44.594;11.368;2023-04-01T15:43:40;2.95;;;0.77;;
44270;SDS011;29963;44.594;11.368;2023-04-01T15:49:10;0.50;;;0.50;;
44270;SDS011;29963;44.594;11.368;2023-04-01T16:00:08;0.68;;;0.57;;
44270;SDS011;29963;44.594;11.368;2023-04-01T16:05:56;0.70;;;0.50;;
44270;SDS011;29963;44.594;11.368;2023-04-01T16:11:14;1.08;;;0.50;;
44270;SDS011;29963;44.594;11.368;2023-04-01T16:16:57;1.80;;;0.52;;
44270;SDS011;29963;44.594;11.368;2023-04-01T16:22:27;0.82;;;0.80;;
44270;SDS011;29963;44.594;11.368;2023-04-01T16:27:54;1.30;;;1.05;;
44270;SDS011;29963;44.594;11.368;2023-04-01T16:40:47;2.33;;;2.10;;
44270;SDS011;29963;44.594;11.368;2023-04-01T16:43:19;2.38;;;2.13;;
44270;SDS011;29963;44.594;11.368;2023-04-01T16:51:57;6.10;;;2.00;;
44270;SDS011;29963;44.594;11.368;2023-04-01T16:57:45;3.17;;;1.05;;
44270;SDS011;29963;44.594;11.368;2023-04-01T17:00:22;2.03;;;0.90;;
44270;SDS011;29963;44.594;11.368;2023-04-01T17:03:13;2.63;;;1.05;;
44270;SDS011;29963;44.594;11.368;2023-04-01T17:14:32;1.83;;;1.05;;
44270;SDS011;29963;44.594;11.368;2023-04-01T17:22:45;2.90;;;1.05;;
44270;SDS011;29963;44.594;11.368;2023-04-01T17:28:12;6.80;;;1.48;;
44270;SDS011;29963;44.594;11.368;2023-04-01T17:31:05;2.40;;;1.25;;
44270;SDS011;29963;44.594;11.368;2023-04-01T17:33:46;2.38;;;1.10;;
44270;SDS011;29963;44.594;11.368;2023-04-01T17:36:27;2.83;;;1.15;;
44270;SDS011;29963;44.594;11.368;2023-04-01T17:39:02;3.22;;;1.73;;
44270;SDS011;29963;44.594;11.368;2023-04-01T17:47:08;3.58;;;1.45;;
44270;SDS011;29963;44.594;11.368;2023-04-01T17:49:38;3.25;;;1.20;;
44270;SDS011;29963;44.594;11.368;2023-04-01T17:52:37;3.78;;;1.27;;
44270;SDS011;29963;44.594;11.368;2023-04-01T17:58:00;2.88;;;1.65;;
44270;SDS011;29963;44.594;11.368;2023-04-01T18:00:37;3.28;;;1.52;;
44270;SDS011;29963;44.594;11.368;2023-04-01T18:05:45;4.55;;;1.70;;
44270;SDS011;29963;44.594;11.368;2023-04-01T18:08:36;1.92;;;1.27;;
44270;SDS011;29963;44.594;11.368;2023-04-01T18:11:34;5.07;;;1.70;;
44270;SDS011;29963;44.594;11.368;2023-04-01T18:14:50;2.42;;;1.40;;
44270;SDS011;29963;44.594;11.368;2023-04-01T18:25:55;4.47;;;1.63;;
44270;SDS011;29963;44.594;11.368;2023-04-01T18:30:56;2.20;;;1.20;;
44270;SDS011;29963;44.594;11.368;2023-04-01T18:33:29;1.45;;;1.23;;
44270;SDS011;29963;44.594;11.368;2023-04-01T18:36:14;1.83;;;1.45;;
44270;SDS011;29963;44.594;11.368;2023-04-01T18:39:03;2.88;;;1.58;;
44270;SDS011;29963;44.594;11.368;2023-04-01T18:41:35;4.55;;;1.20;;
44270;SDS011;29963;44.594;11.368;2023-04-01T18:44:10;2.03;;;1.10;;
44270;SDS011;29963;44.594;11.368;2023-04-01T18:49:50;1.98;;;1.67;;
44270;SDS011;29963;44.594;11.368;2023-04-01T18:52:42;3.40;;;1.05;;
44270;SDS011;29963;44.594;11.368;2023-04-01T18:55:18;1.23;;;1.10;;
44270;SDS011;29963;44.594;11.368;2023-04-01T18:57:58;3.03;;;1.35;;
44270;SDS011;29963;44.594;11.368;2023-04-01T19:00:43;2.22;;;1.35;;
44270;SDS011;29963;44.594;11.368;2023-04-01T19:06:17;2.17;;;1.25;;
44270;SDS011;29963;44.594;11.368;2023-04-01T19:08:47;1.33;;;1.23;;
44270;SDS011;29963;44.594;11.368;2023-04-01T19:11:16;2.35;;;1.40;;
44270;SDS011;29963;44.594;11.368;2023-04-01T19:17:06;2.58;;;1.23;;
44270;SDS011;29963;44.594;11.368;2023-04-01T19:22:24;2.63;;;1.70;;
44270;SDS011;29963;44.594;11.368;2023-04-01T19:36:59;2.78;;;1.40;;
44270;SDS011;29963;44.594;11.368;2023-04-01T19:51:07;4.72;;;1.92;;
44270;SDS011;29963;44.594;11.368;2023-04-01T19:54:09;4.10;;;1.63;;
44270;SDS011;29963;44.594;11.368;2023-04-01T20:02:37;5.95;;;1.42;;
44270;SDS011;29963;44.594;11.368;2023-04-01T20:05:16;3.97;;;2.25;;
44270;SDS011;29963;44.594;11.368;2023-04-01T20:07:44;4.90;;;1.77;;
44270;SDS011;29963;44.594;11.368;2023-04-01T20:10:45;7.00;;;1.73;;
44270;SDS011;29963;44.594;11.368;2023-04-01T20:13:26;10.60;;;2.35;;
44270;SDS011;29963;44.594;11.368;2023-04-01T20:16:03;4.03;;;1.73;;
44270;SDS011;29963;44.594;11.368;2023-04-01T20:18:34;7.07;;;1.98;;
44270;SDS011;29963;44.594;11.368;2023-04-01T20:24:02;7.63;;;2.35;;
44270;SDS011;29963;44.594;11.368;2023-04-01T20:26:38;10.73;;;2.05;;
44270;SDS011;29963;44.594;11.368;2023-04-01T20:34:55;4.85;;;1.90;;
44270;SDS011;29963;44.594;11.368;2023-04-01T20:37:49;8.73;;;2.47;;
44270;SDS011;29963;44.594;11.368;2023-04-01T20:40:40;7.55;;;2.28;;
44270;SDS011;29963;44.594;11.368;2023-04-01T20:45:58;5.65;;;1.95;;
44270;SDS011;29963;44.594;11.368;2023-04-01T20:48:29;8.38;;;2.33;;
44270;SDS011;29963;44.594;11.368;2023-04-01T20:51:13;6.55;;;2.83;;
44270;SDS011;29963;44.594;11.368;2023-04-01T20:56:55;10.07;;;2.70;;
44270;SDS011;29963;44.594;11.368;2023-04-01T21:24:38;8.27;;;2.13;;
44270;SDS011;29963;44.594;11.368;2023-04-01T21:32:31;13.88;;;3.67;;
44270;SDS011;29963;44.594;11.368;2023-04-01T21:35:34;13.13;;;3.17;;
44270;SDS011;29963;44.594;11.368;2023-04-01T21:50:28;9.85;;;3.25;;
44270;SDS011;29963;44.594;11.368;2023-04-01T21:52:56;8.25;;;2.38;;
44270;SDS011;29963;44.594;11.368;2023-04-01T22:01:21;12.85;;;3.55;;
44270;SDS011;29963;44.594;11.368;2023-04-01T22:23:08;10.23;;;3.13;;
44270;SDS011;29963;44.594;11.368;2023-04-01T22:25:46;10.75;;;3.20;;
44270;SDS011;29963;44.594;11.368;2023-04-01T22:28:19;8.93;;;3.03;;
44270;SDS011;29963;44.594;11.368;2023-04-01T22:30:54;9.98;;;3.45;;
44270;SDS011;29963;44.594;11.368;2023-04-01T22:47:45;12.18;;;3.70;;
44270;SDS011;29963;44.594;11.368;2023-04-01T22:52:46;11.55;;;2.83;;
44270;SDS011;29963;44.594;11.368;2023-04-01T22:55:22;12.95;;;3.47;;
44270;SDS011;29963;44.594;11.368;2023-04-01T22:57:51;12.30;;;3.25;;
44270;SDS011;29963;44.594;11.368;2023-04-01T23:00:26;11.57;;;3.78;;
44270;SDS011;29963;44.594;11.368;2023-04-01T23:03:01;7.88;;;2.83;;
44270;SDS011;29963;44.594;11.368;2023-04-01T23:05:47;13.85;;;3.90;;
44270;SDS011;29963;44.594;11.368;2023-04-01T23:08:37;13.90;;;4.03;;
44270;SDS011;29963;44.594;11.368;2023-04-01T23:16:51;14.57;;;4.47;;
44270;SDS011;29963;44.594;11.368;2023-04-01T23:19:54;15.82;;;4.25;;
44270;SDS011;29963;44.594;11.368;2023-04-01T23:24:45;9.77;;;2.97;;
44270;SDS011;29963;44.594;11.368;2023-04-01T23:27:23;16.85;;;4.03;;
44270;SDS011;29963;44.594;11.368;2023-04-01T23:29:51;12.63;;;3.42;;
44270;SDS011;29963;44.594;11.368;2023-04-01T23:32:23;11.85;;;3.35;;
44270;SDS011;29963;44.594;11.368;2023-04-01T23:34:55;13.85;;;3.65;;
44270;SDS011;29963;44.594;11.368;2023-04-01T23:37:23;8.35;;;3.38;;
44270;SDS011;29963;44.594;11.368;2023-04-01T23:39:50;13.65;;;3.85;;
44270;SDS011;29963;44.594;11.368;2023-04-01T23:42:27;9.77;;;2.88;;
44270;SDS011;29963;44.594;11.368;2023-04-01T23:45:04;9.70;;;2.70;;
44270;SDS011;29963;44.594;11.368;2023-04-01T23:47:38;8.77;;;2.97;;
44270;SDS011;29963;44.594;11.368;2023-04-01T23:50:13;11.40;;;2.60;;
44270;SDS011;29963;44.594;11.368;2023-04-01T23:52:43;14.48;;;3.00;;
